Time;durP1;ratioP1;P1;durP2;ratioP2;P2;SDS_P1;SDS_P2;PMS_P1;PMS_P2;Temp;Humidity;BMP_temperature;BMP_pressure;BME280_temperature;BME280_humidity;BME280_pressure;Samples;Min_cycle;Max_cycle;Signal;HPM_P1;HPM_P2
2022/04/28 00:00:55;;;;;;;12.70;1.50;;;;;;;;;;5032234;28;20506;-70
2022/04/28 00:03:23;;;;;;;12.00;1.40;;;;;;;;;;5031856;28;20440;-70
2022/04/28 00:05:52;;;;;;;13.27;1.50;;;;;;;;;;5032087;28;20455;-71
2022/04/28 00:08:20;;;;;;;11.70;1.50;;;;;;;;;;5031872;28;20970;-71
2022/04/28 00:10:47;;;;;;;12.17;1.70;;;;;;;;;;5031747;28;20445;-71
2022/04/28 00:13:15;;;;;;;12.53;1.90;;;;;;;;;;5031412;28;20444;-71
2022/04/28 00:15:42;;;;;;;12.13;1.40;;;;;;;;;;5031918;28;20436;-71
2022/04/28 00:18:09;;;;;;;13.20;1.33;;;;;;;;;;5032089;28;20488;-70
2022/04/28 00:20:37;;;;;;;13.03;1.40;;;;;;;;;;5031820;28;20447;-71
2022/04/28 00:23:06;;;;;;;16.63;1.57;;;;;;;;;;5031953;28;20473;-71
2022/04/28 00:25:34;;;;;;;12.07;1.50;;;;;;;;;;5031330;28;20461;-71
2022/04/28 00:28:02;;;;;;;13.47;1.60;;;;;;;;;;5031583;28;20449;-70
2022/04/28 00:30:29;;;;;;;13.20;1.60;;;;;;;;;;5032039;28;20610;-71
2022/04/28 00:32:57;;;;;;;13.57;1.53;;;;;;;;;;5031538;28;20449;-71
2022/04/28 00:35:24;;;;;;;12.70;1.80;;;;;;;;;;5031144;28;20452;-71
2022/04/28 00:37:51;;;;;;;15.53;1.70;;;;;;;;;;5031825;28;20443;-71
2022/04/28 00:40:22;;;;;;;12.77;2.77;;;;;;;;;;5031854;28;20499;-70
2022/04/28 00:42:49;;;;;;;12.60;1.67;;;;;;;;;;5031515;28;20972;-70
2022/04/28 00:45:16;;;;;;;13.03;1.67;;;;;;;;;;5035070;28;20446;-68
2022/04/28 00:50:41;;;;;;;12.37;1.70;;;;;;;;;;5005240;28;20808;-71
2022/04/28 00:53:09;;;;;;;12.53;1.70;;;;;;;;;;5035765;28;20524;-69
2022/04/28 00:55:39;;;;;;;11.10;1.23;;;;;;;;;;5035345;28;21019;-68
2022/04/28 00:58:07;;;;;;;12.77;1.63;;;;;;;;;;5034901;28;20461;-70
2022/04/28 01:00:35;;;;;;;14.33;2.17;;;;;;;;;;5035256;28;20530;-70
2022/04/28 01:03:02;;;;;;;14.13;2.57;;;;;;;;;;5035053;28;20522;-70
2022/04/28 01:05:30;;;;;;;12.57;1.53;;;;;;;;;;5035083;28;20474;-70
2022/04/28 01:07:57;;;;;;;12.67;1.87;;;;;;;;;;5035356;28;21062;-70
2022/04/28 01:10:25;;;;;;;12.90;2.13;;;;;;;;;;5035011;28;20973;-70
2022/04/28 01:12:54;;;;;;;13.60;1.83;;;;;;;;;;5035168;28;20533;-71
2022/04/28 01:15:22;;;;;;;12.27;1.53;;;;;;;;;;5034760;28;20474;-70
2022/04/28 01:17:49;;;;;;;12.23;1.67;;;;;;;;;;5034924;28;20965;-70
2022/04/28 01:20:17;;;;;;;12.07;1.53;;;;;;;;;;5034677;28;20506;-71
2022/04/28 01:22:45;;;;;;;11.70;1.50;;;;;;;;;;5035169;28;20909;-70
2022/04/28 01:25:13;;;;;;;12.80;1.83;;;;;;;;;;5034575;28;20450;-71
2022/04/28 01:27:41;;;;;;;12.63;1.83;;;;;;;;;;5034633;28;20451;-70
2022/04/28 01:30:13;;;;;;;14.97;1.70;;;;;;;;;;5034689;28;20854;-71
2022/04/28 01:32:41;;;;;;;13.87;1.70;;;;;;;;;;5034622;28;20448;-71
2022/04/28 01:35:08;;;;;;;12.60;1.87;;;;;;;;;;5034937;28;20468;-71
2022/04/28 01:37:36;;;;;;;18.53;1.60;;;;;;;;;;5034918;28;20472;-71
2022/04/28 01:40:06;;;;;;;14.97;3.07;;;;;;;;;;5034481;28;20558;-70
2022/04/28 01:42:33;;;;;;;12.87;1.80;;;;;;;;;;5034404;28;20524;-71
2022/04/28 01:45:01;;;;;;;12.30;1.80;;;;;;;;;;5034524;28;20447;-70
2022/04/28 01:47:29;;;;;;;13.37;1.87;;;;;;;;;;5034150;28;20437;-71
2022/04/28 01:49:57;;;;;;;12.70;1.97;;;;;;;;;;5034490;28;20470;-70
2022/04/28 01:55:10;;;;;;;13.50;2.13;;;;;;;;;;5033172;28;20530;-71
2022/04/28 01:57:39;;;;;;;16.43;1.90;;;;;;;;;;5034392;28;20828;-70
2022/04/28 02:00:07;;;;;;;14.37;2.00;;;;;;;;;;5034486;28;20502;-70
2022/04/28 02:02:35;;;;;;;15.73;2.00;;;;;;;;;;5034397;28;20448;-71
2022/04/28 02:05:03;;;;;;;12.53;2.13;;;;;;;;;;5033995;28;20444;-70
2022/04/28 02:07:31;;;;;;;14.40;2.70;;;;;;;;;;5033690;28;20818;-72
2022/04/28 02:09:59;;;;;;;12.40;1.87;;;;;;;;;;5033960;28;20835;-70
2022/04/28 02:12:28;;;;;;;16.77;2.30;;;;;;;;;;5033859;28;20444;-71
2022/04/28 02:14:55;;;;;;;13.13;2.10;;;;;;;;;;5033968;28;20444;-71
2022/04/28 02:17:24;;;;;;;13.37;2.70;;;;;;;;;;5033906;28;20518;-71
2022/04/28 02:19:52;;;;;;;14.83;3.10;;;;;;;;;;5033672;28;20924;-71
2022/04/28 02:22:20;;;;;;;15.47;2.80;;;;;;;;;;5033613;28;21057;-71
2022/04/28 02:24:48;;;;;;;20.33;3.80;;;;;;;;;;5034084;28;20447;-71
2022/04/28 02:27:15;;;;;;;17.13;3.80;;;;;;;;;;5033498;28;20827;-70
2022/04/28 02:29:44;;;;;;;18.13;4.20;;;;;;;;;;5033563;28;20441;-70
2022/04/28 02:32:11;;;;;;;14.37;3.27;;;;;;;;;;5033375;28;20447;-70
2022/04/28 02:34:39;;;;;;;19.70;4.40;;;;;;;;;;5033400;28;20443;-71
2022/04/28 02:37:08;;;;;;;18.60;4.33;;;;;;;;;;5033125;28;20494;-70
2022/04/28 02:39:35;;;;;;;15.40;4.60;;;;;;;;;;5033177;28;20481;-70
2022/04/28 02:42:02;;;;;;;19.00;4.70;;;;;;;;;;5033224;28;20437;-70
2022/04/28 02:44:30;;;;;;;18.90;5.10;;;;;;;;;;5033353;28;20479;-70
2022/04/28 02:46:59;;;;;;;24.27;5.30;;;;;;;;;;5033304;28;20963;-70
2022/04/28 02:49:26;;;;;;;19.43;5.70;;;;;;;;;;5032766;28;20462;-70
2022/04/28 02:51:53;;;;;;;18.43;5.10;;;;;;;;;;5033313;28;20439;-69
2022/04/28 02:54:22;;;;;;;17.13;5.27;;;;;;;;;;5033629;28;20451;-70
2022/04/28 02:56:49;;;;;;;19.90;6.07;;;;;;;;;;5033220;28;20443;-70
2022/04/28 02:59:17;;;;;;;18.90;5.33;;;;;;;;;;5032472;28;20490;-71
2022/04/28 03:01:44;;;;;;;18.50;5.50;;;;;;;;;;5032674;28;20442;-71
2022/04/28 03:04:13;;;;;;;22.17;5.90;;;;;;;;;;5033102;28;20482;-70
2022/04/28 03:12:13;;;;;;;19.25;7.63;;;;;;;;;;5033106;28;20440;-71
2022/04/28 03:14:41;;;;;;;22.33;7.28;;;;;;;;;;5032765;28;20199;-70
2022/04/28 03:17:08;;;;;;;23.77;6.30;;;;;;;;;;5032838;28;20222;-70
2022/04/28 03:19:37;;;;;;;18.90;6.00;;;;;;;;;;5032860;28;20488;-70
2022/04/28 03:22:04;;;;;;;20.05;6.75;;;;;;;;;;5032653;28;20207;-70
2022/04/28 03:24:33;;;;;;;19.42;5.80;;;;;;;;;;5032398;28;20203;-70
2022/04/28 03:27:00;;;;;;;22.48;6.68;;;;;;;;;;5032514;28;20753;-70
2022/04/28 03:29:28;;;;;;;18.40;6.15;;;;;;;;;;5032418;28;20580;-70
2022/04/28 03:31:55;;;;;;;20.63;7.40;;;;;;;;;;5032480;28;20202;-70
2022/04/28 03:34:24;;;;;;;18.63;6.73;;;;;;;;;;5032611;28;20450;-70
2022/04/28 03:36:53;;;;;;;25.10;6.60;;;;;;;;;;5032656;28;21088;-70
2022/04/28 03:39:21;;;;;;;19.58;7.22;;;;;;;;;;5031829;28;20488;-70
2022/04/28 03:41:49;;;;;;;18.70;5.47;;;;;;;;;;5032516;28;20242;-70
2022/04/28 03:44:16;;;;;;;17.88;5.38;;;;;;;;;;5032299;28;20448;-70
2022/04/28 03:46:44;;;;;;;19.05;6.90;;;;;;;;;;5032246;28;20589;-70
2022/04/28 03:49:11;;;;;;;21.90;7.50;;;;;;;;;;5032023;28;20225;-70
2022/04/28 03:51:39;;;;;;;24.23;5.97;;;;;;;;;;5032033;28;20950;-70
2022/04/28 03:54:08;;;;;;;20.10;6.85;;;;;;;;;;5031945;28;20205;-70
2022/04/28 03:56:35;;;;;;;18.40;6.47;;;;;;;;;;5031915;28;20205;-70
2022/04/28 03:59:04;;;;;;;20.58;6.75;;;;;;;;;;5031577;28;20225;-70
2022/04/28 04:01:31;;;;;;;20.65;5.95;;;;;;;;;;5031634;28;20699;-70
2022/04/28 04:04:00;;;;;;;23.77;6.65;;;;;;;;;;5032146;28;20199;-70
2022/04/28 04:06:28;;;;;;;22.57;8.10;;;;;;;;;;5031768;28;20198;-70
2022/04/28 04:08:55;;;;;;;20.50;6.45;;;;;;;;;;5032101;28;20448;-70
2022/04/28 04:11:24;;;;;;;20.23;6.90;;;;;;;;;;5031945;28;20625;-68
2022/04/28 04:13:51;;;;;;;23.83;7.80;;;;;;;;;;5031799;28;20452;-70
2022/04/28 04:16:19;;;;;;;19.23;7.47;;;;;;;;;;5031958;28;20199;-70
2022/04/28 04:18:46;;;;;;;18.67;5.73;;;;;;;;;;5032776;28;20454;-70
2022/04/28 04:21:14;;;;;;;21.83;7.47;;;;;;;;;;5035582;28;21065;-70
2022/04/28 04:23:41;;;;;;;18.80;5.93;;;;;;;;;;5036572;28;20835;-70
2022/04/28 04:26:09;;;;;;;19.03;5.90;;;;;;;;;;5036397;28;20818;-70
2022/04/28 04:28:37;;;;;;;22.05;7.15;;;;;;;;;;5035844;28;20456;-70
2022/04/28 04:33:50;;;;;;;19.57;6.00;;;;;;;;;;5036378;28;20206;-70
2022/04/28 04:36:17;;;;;;;;;;;;;;;;;;5036006;28;20478;-70
2022/04/28 04:38:45;;;;;;;;;;;;;;;;;;5036103;28;20397;-70
2022/04/28 04:41:12;;;;;;;;;;;;;;;;;;5035791;28;20001;-71
2022/04/28 04:43:39;;;;;;;;;;;;;;;;;;5036142;28;19951;-70
2022/04/28 04:46:06;;;;;;;;;;;;;;;;;;5035939;28;19945;-70
2022/04/28 04:48:33;;;;;;;;;;;;;;;;;;5035877;28;19953;-70
2022/04/28 04:51:02;;;;;;;;;;;;;;;;;;5036273;28;19951;-69
2022/04/28 04:53:29;;;;;;;;;;;;;;;;;;5035580;28;19942;-70
2022/04/28 04:55:56;;;;;;;;;;;;;;;;;;5035747;28;19945;-70
2022/04/28 04:58:23;;;;;;;;;;;;;;;;;;5035221;28;20457;-70
2022/04/28 05:00:52;;;;;;;;;;;;;;;;;;5035649;28;19978;-70
2022/04/28 05:03:19;;;;;;;;;;;;;;;;;;5035993;28;20049;-70
2022/04/28 05:05:46;;;;;;;;;;;;;;;;;;5035883;28;20046;-68
2022/04/28 05:08:14;;;;;;;;;;;;;;;;;;5035527;28;19987;-70
2022/04/28 05:10:41;;;;;;;;;;;;;;;;;;5035554;28;19956;-71
2022/04/28 05:13:09;;;;;;;;;;;;;;;;;;5035295;28;20048;-70
2022/04/28 05:15:36;;;;;;;;;;;;;;;;;;5035313;28;19951;-70
2022/04/28 05:18:05;;;;;;;20.27;7.07;;;;;;;;;;5035740;28;19952;-70
2022/04/28 05:20:33;;;;;;;19.50;6.50;;;;;;;;;;5034932;28;20606;-70
2022/04/28 05:23:00;;;;;;;20.97;6.53;;;;;;;;;;5034954;28;20997;-70
2022/04/28 05:25:29;;;;;;;22.57;7.10;;;;;;;;;;5034365;28;20441;-70
2022/04/28 05:27:56;;;;;;;18.40;6.40;;;;;;;;;;5034914;28;20449;-70
2022/04/28 05:30:24;;;;;;;21.63;6.67;;;;;;;;;;5034765;28;20445;-70
2022/04/28 05:32:51;;;;;;;18.27;6.90;;;;;;;;;;5034708;28;20583;-70
2022/04/28 05:35:20;;;;;;;21.77;6.93;;;;;;;;;;5034139;28;20443;-70
2022/04/28 05:37:48;;;;;;;18.40;6.80;;;;;;;;;;5034507;28;20447;-70
2022/04/28 05:40:15;;;;;;;19.83;7.37;;;;;;;;;;5034318;28;20486;-70
2022/04/28 05:45:46;;;;;;;24.30;7.57;;;;;;;;;;5034428;28;20431;-70
2022/04/28 05:48:14;;;;;;;23.77;7.60;;;;;;;;;;5034469;28;20441;-70
2022/04/28 05:50:44;;;;;;;17.10;5.77;;;;;;;;;;5034345;28;20450;-70
2022/04/28 05:53:11;;;;;;;20.90;7.40;;;;;;;;;;5034226;28;20444;-71
2022/04/28 05:55:39;;;;;;;19.47;6.67;;;;;;;;;;5034131;28;20437;-70
2022/04/28 05:58:07;;;;;;;22.40;7.53;;;;;;;;;;5034183;28;20464;-70
2022/04/28 06:00:35;;;;;;;20.03;7.00;;;;;;;;;;5034165;28;20483;-71
2022/04/28 06:03:02;;;;;;;17.20;6.57;;;;;;;;;;5034053;28;20463;-70
2022/04/28 06:05:30;;;;;;;22.27;7.80;;;;;;;;;;5034014;28;20623;-70
2022/04/28 06:07:59;;;;;;;19.70;7.67;;;;;;;;;;5034094;28;20443;-70
2022/04/28 06:10:26;;;;;;;20.10;6.63;;;;;;;;;;5034139;28;20441;-70
2022/04/28 06:12:54;;;;;;;20.40;7.03;;;;;;;;;;5034165;28;20467;-70
2022/04/28 06:15:22;;;;;;;19.23;7.07;;;;;;;;;;5033797;28;20439;-70
2022/04/28 06:17:49;;;;;;;22.80;8.27;;;;;;;;;;5033686;28;20500;-70
2022/04/28 06:20:16;;;;;;;24.57;7.97;;;;;;;;;;5033842;28;20492;-70
2022/04/28 06:22:44;;;;;;;25.20;8.00;;;;;;;;;;5033571;28;20442;-70
2022/04/28 06:25:13;;;;;;;22.07;7.23;;;;;;;;;;5033663;28;20446;-70
2022/04/28 06:27:41;;;;;;;21.27;6.47;;;;;;;;;;5033691;28;20825;-70
2022/04/28 06:30:09;;;;;;;24.73;7.97;;;;;;;;;;5033429;28;20453;-70
2022/04/28 06:32:37;;;;;;;21.20;5.78;;;;;;;;;;5033844;28;20229;-69
2022/04/28 06:35:05;;;;;;;22.77;6.72;;;;;;;;;;5033569;28;20226;-69
2022/04/28 06:37:32;;;;;;;19.30;6.40;;;;;;;;;;5033631;28;20715;-70
2022/04/28 06:40:00;;;;;;;19.15;6.25;;;;;;;;;;5033205;28;20976;-70
2022/04/28 06:42:29;;;;;;;21.70;6.50;;;;;;;;;;5032798;28;20583;-70
2022/04/28 06:44:56;;;;;;;21.37;6.30;;;;;;;;;;5033188;28;20445;-70
2022/04/28 06:47:24;;;;;;;18.88;6.55;;;;;;;;;;5033275;28;20473;-70
2022/04/28 06:49:51;;;;;;;24.97;7.00;;;;;;;;;;5033092;28;20200;-70
2022/04/28 06:52:19;;;;;;;17.53;5.67;;;;;;;;;;5033300;28;20990;-69
2022/04/28 06:54:46;;;;;;;17.93;6.60;;;;;;;;;;5033019;28;20446;-69
2022/04/28 06:57:13;;;;;;;17.50;6.37;;;;;;;;;;5032537;28;20540;-70
2022/04/28 06:59:43;;;;;;;22.17;6.80;;;;;;;;;;5032788;28;20974;-70
2022/04/28 07:02:10;;;;;;;19.50;5.90;;;;;;;;;;5032798;28;20474;-70
2022/04/28 07:04:38;;;;;;;19.87;6.33;;;;;;;;;;5032804;28;20444;-70
2022/04/28 07:07:05;;;;;;;22.23;6.20;;;;;;;;;;5033224;28;20445;-70
2022/04/28 07:09:33;;;;;;;19.50;6.70;;;;;;;;;;5032592;28;20491;-70
2022/04/28 07:12:00;;;;;;;18.70;6.60;;;;;;;;;;5032543;28;20453;-70
2022/04/28 07:14:28;;;;;;;30.63;6.50;;;;;;;;;;5032957;28;20537;-70
2022/04/28 07:16:57;;;;;;;16.70;5.60;;;;;;;;;;5032757;28;20445;-70
2022/04/28 07:19:24;;;;;;;27.17;5.97;;;;;;;;;;5032375;28;20840;-70
2022/04/28 07:21:52;;;;;;;20.57;5.60;;;;;;;;;;5032477;28;20483;-70
2022/04/28 07:24:19;;;;;;;21.40;7.40;;;;;;;;;;5032467;28;20448;-70
2022/04/28 07:26:47;;;;;;;22.17;6.17;;;;;;;;;;5032712;28;20447;-70
2022/04/28 07:29:14;;;;;;;20.43;5.93;;;;;;;;;;5032106;28;20452;-70
2022/04/28 07:31:43;;;;;;;18.53;6.10;;;;;;;;;;5032355;28;20446;-70
2022/04/28 07:34:13;;;;;;;23.23;6.03;;;;;;;;;;5032385;28;20453;-70
2022/04/28 07:36:40;;;;;;;17.60;6.33;;;;;;;;;;5032244;28;20482;-70
2022/04/28 07:39:08;;;;;;;18.20;7.30;;;;;;;;;;5032280;28;20547;-70
2022/04/28 07:41:35;;;;;;;18.63;5.00;;;;;;;;;;5032085;28;20487;-70
2022/04/28 07:44:03;;;;;;;16.60;5.50;;;;;;;;;;5032097;28;20452;-70
2022/04/28 07:46:30;;;;;;;14.73;4.97;;;;;;;;;;5032392;28;20827;-70
2022/04/28 07:48:58;;;;;;;16.07;4.53;;;;;;;;;;5032083;28;20515;-70
2022/04/28 07:51:26;;;;;;;16.97;5.20;;;;;;;;;;5031691;28;20450;-70
2022/04/28 07:53:54;;;;;;;17.40;5.93;;;;;;;;;;5031151;28;20992;-70
2022/04/28 07:56:21;;;;;;;16.80;5.70;;;;;;;;;;5032249;28;20487;-69
2022/04/28 07:58:49;;;;;;;14.93;4.57;;;;;;;;;;5031612;28;20457;-69
2022/04/28 08:01:17;;;;;;;17.30;5.07;;;;;;;;;;5031767;28;20494;-70
2022/04/28 08:03:44;;;;;;;18.93;4.97;;;;;;;;;;5031864;28;20449;-70
2022/04/28 08:06:13;;;;;;;14.63;5.00;;;;;;;;;;5031865;28;20490;-69
2022/04/28 08:08:43;;;;;;;17.90;6.30;;;;;;;;;;5031838;28;20501;-69
2022/04/28 08:11:10;;;;;;;19.43;6.00;;;;;;;;;;5031645;28;20451;-71
2022/04/28 08:13:38;;;;;;;20.60;6.07;;;;;;;;;;5032022;28;20536;-69
2022/04/28 08:16:06;;;;;;;17.53;5.53;;;;;;;;;;5031703;28;20451;-69
2022/04/28 08:18:35;;;;;;;18.57;6.00;;;;;;;;;;5031696;28;20459;-69
2022/04/28 08:21:03;;;;;;;22.80;6.73;;;;;;;;;;5031940;28;20502;-69
2022/04/28 08:23:30;;;;;;;17.30;5.93;;;;;;;;;;5031424;28;20441;-69
2022/04/28 08:26:00;;;;;;;15.93;4.87;;;;;;;;;;5031817;28;20498;-70
2022/04/28 08:28:27;;;;;;;24.03;7.13;;;;;;;;;;5031606;28;20479;-70
2022/04/28 08:30:54;;;;;;;16.50;5.53;;;;;;;;;;5031615;28;20448;-70
2022/04/28 08:33:22;;;;;;;16.17;5.10;;;;;;;;;;5031651;28;20528;-69
2022/04/28 08:35:49;;;;;;;18.20;6.37;;;;;;;;;;5031590;28;20494;-69
2022/04/28 08:38:17;;;;;;;18.17;6.17;;;;;;;;;;5031567;28;20945;-70
2022/04/28 08:40:45;;;;;;;18.90;5.43;;;;;;;;;;5031445;28;20494;-69
2022/04/28 08:43:16;;;;;;;20.70;7.30;;;;;;;;;;5031293;28;21004;-70
2022/04/28 08:46:50;;;;;;;17.00;5.70;;;;;;;;;;5031462;28;20954;-69
2022/04/28 08:48:32;;;;;;;19.73;5.80;;;;;;;;;;5031634;28;21047;-69
2022/04/28 08:51:00;;;;;;;19.83;5.80;;;;;;;;;;5031729;28;20471;-70
2022/04/28 08:53:28;;;;;;;19.50;7.20;;;;;;;;;;5031364;28;20433;-70
2022/04/28 08:55:57;;;;;;;16.30;6.27;;;;;;;;;;5031550;28;20433;-70
2022/04/28 08:58:27;;;;;;;17.20;6.83;;;;;;;;;;5031324;28;20448;-70
2022/04/28 09:00:54;;;;;;;17.13;5.90;;;;;;;;;;5031583;28;20567;-70
2022/04/28 09:03:22;;;;;;;17.80;6.77;;;;;;;;;;5031083;28;20444;-70
2022/04/28 09:05:51;;;;;;;19.43;7.27;;;;;;;;;;5034095;28;20518;-70
2022/04/28 09:08:19;;;;;;;22.00;7.47;;;;;;;;;;5035096;28;20483;-70
2022/04/28 09:10:47;;;;;;;19.83;6.93;;;;;;;;;;5035010;28;20440;-70
2022/04/28 09:16:01;;;;;;;17.93;7.10;;;;;;;;;;5035172;28;20427;-70
2022/04/28 09:18:28;;;;;;;21.20;8.83;;;;;;;;;;5034983;28;20437;-70
2022/04/28 09:20:56;;;;;;;19.50;8.20;;;;;;;;;;5034803;28;20445;-70
2022/04/28 09:23:23;;;;;;;21.07;6.87;;;;;;;;;;5034517;28;20532;-70
2022/04/28 09:25:51;;;;;;;19.83;7.53;;;;;;;;;;5034926;28;20468;-70
2022/04/28 09:28:19;;;;;;;21.80;7.10;;;;;;;;;;5034954;28;20532;-70
2022/04/28 09:30:49;;;;;;;17.60;6.67;;;;;;;;;;5034854;28;20437;-70
2022/04/28 09:33:20;;;;;;;17.40;6.30;;;;;;;;;;5034287;28;20950;-70
2022/04/28 09:35:48;;;;;;;18.23;6.80;;;;;;;;;;5034333;28;20480;-70
2022/04/28 09:38:16;;;;;;;17.83;6.30;;;;;;;;;;5034654;28;20436;-70
2022/04/28 09:43:32;;;;;;;18.93;5.90;;;;;;;;;;5034524;28;20556;-70
2022/04/28 09:46:00;;;;;;;17.33;6.03;;;;;;;;;;5034413;28;20444;-70
2022/04/28 09:48:31;;;;;;;22.70;6.00;;;;;;;;;;5034509;28;20524;-70
2022/04/28 09:51:04;;;;;;;22.63;7.00;;;;;;;;;;5034278;28;20437;-70
2022/04/28 09:53:35;;;;;;;20.30;6.67;;;;;;;;;;5034232;28;20468;-70
2022/04/28 09:56:03;;;;;;;18.93;5.73;;;;;;;;;;5034387;28;20447;-70
2022/04/28 09:58:31;;;;;;;20.63;6.37;;;;;;;;;;5033688;28;20465;-70
2022/04/28 10:01:01;;;;;;;20.13;7.40;;;;;;;;;;5033951;28;20957;-70
2022/04/28 10:03:33;;;;;;;20.03;7.60;;;;;;;;;;5034389;28;20528;-70
2022/04/28 10:06:02;;;;;;;18.80;6.70;;;;;;;;;;5034648;28;20444;-70
2022/04/28 10:08:32;;;;;;;18.47;6.83;;;;;;;;;;5034101;28;20452;-70
2022/04/28 10:11:01;;;;;;;21.00;7.60;;;;;;;;;;5033894;28;20441;-70
2022/04/28 10:13:30;;;;;;;23.33;7.00;;;;;;;;;;5033621;28;20822;-70
2022/04/28 10:15:58;;;;;;;18.87;7.10;;;;;;;;;;5033162;28;20504;-70
2022/04/28 10:18:27;;;;;;;19.53;7.27;;;;;;;;;;5033714;28;20440;-70
2022/04/28 10:21:00;;;;;;;18.40;6.90;;;;;;;;;;5034041;28;20785;-70
2022/04/28 10:34:31;;;;;;;19.47;7.00;;;;;;;;;;5033594;28;20427;-70
2022/04/28 10:37:01;;;;;;;15.77;5.47;;;;;;;;;;5033442;28;20539;-70
2022/04/28 10:39:38;;;;;;;18.50;5.80;;;;;;;;;;5033121;28;20445;-70
2022/04/28 10:42:13;;;;;;;16.80;5.30;;;;;;;;;;5033336;28;20480;-71
2022/04/28 10:44:42;;;;;;;19.33;6.90;;;;;;;;;;5033483;28;20912;-70
2022/04/28 10:47:09;;;;;;;18.97;6.10;;;;;;;;;;5033392;28;20445;-70
2022/04/28 10:49:40;;;;;;;19.03;7.07;;;;;;;;;;5033364;28;20511;-71
2022/04/28 10:52:25;;;;;;;18.67;6.17;;;;;;;;;;5033372;28;20511;-70
2022/04/28 10:54:53;;;;;;;19.93;6.30;;;;;;;;;;5032989;28;20444;-70
2022/04/28 10:57:29;;;;;;;17.93;6.40;;;;;;;;;;5032559;28;20456;-70
2022/04/28 10:59:57;;;;;;;21.13;6.37;;;;;;;;;;5033097;28;20899;-71
2022/04/28 11:02:51;;;;;;;22.77;7.67;;;;;;;;;;5032925;28;20534;-70
2022/04/28 11:05:38;;;;;;;18.93;7.20;;;;;;;;;;5032892;28;20789;-70
2022/04/28 11:08:10;;;;;;;19.60;6.20;;;;;;;;;;5033371;28;20934;-70
2022/04/28 11:10:52;;;;;;;17.90;7.10;;;;;;;;;;5032762;28;20437;-70
2022/04/28 11:13:24;;;;;;;19.63;6.80;;;;;;;;;;5032373;28;20476;-70
2022/04/28 11:15:51;;;;;;;18.40;6.70;;;;;;;;;;5032977;28;20942;-70
2022/04/28 11:18:19;;;;;;;19.23;7.60;;;;;;;;;;5032867;28;20469;-70
2022/04/28 11:20:46;;;;;;;18.80;7.23;;;;;;;;;;5032554;28;20964;-70
2022/04/28 11:23:19;;;;;;;17.17;6.50;;;;;;;;;;5032203;28;20905;-70
2022/04/28 11:25:46;;;;;;;19.20;7.37;;;;;;;;;;5032588;28;20440;-70
2022/04/28 11:28:14;;;;;;;17.90;6.63;;;;;;;;;;5032187;28;20447;-70
2022/04/28 11:30:43;;;;;;;21.63;6.07;;;;;;;;;;5032407;28;21026;-70
2022/04/28 11:33:13;;;;;;;23.10;8.13;;;;;;;;;;5032236;28;20441;-70
2022/04/28 11:35:40;;;;;;;22.37;7.60;;;;;;;;;;5032160;28;20480;-70
2022/04/28 11:38:08;;;;;;;21.10;7.63;;;;;;;;;;5032289;28;20452;-70
2022/04/28 11:40:39;;;;;;;20.50;8.63;;;;;;;;;;5032316;28;20515;-70
2022/04/28 11:43:07;;;;;;;21.03;7.90;;;;;;;;;;5032331;28;20484;-70
2022/04/28 11:45:36;;;;;;;20.47;8.33;;;;;;;;;;5032257;28;20453;-70
2022/04/28 11:48:05;;;;;;;20.23;7.70;;;;;;;;;;5032234;28;20440;-70
2022/04/28 11:50:34;;;;;;;21.80;8.30;;;;;;;;;;5032342;28;20824;-70
2022/04/28 11:53:03;;;;;;;18.43;7.10;;;;;;;;;;5032007;28;20798;-70
2022/04/28 11:55:33;;;;;;;24.93;8.60;;;;;;;;;;5031793;28;20570;-70
2022/04/28 11:58:04;;;;;;;23.97;7.60;;;;;;;;;;5031688;28;20582;-70
2022/04/28 12:00:37;;;;;;;18.83;8.30;;;;;;;;;;5032249;28;20437;-70
2022/04/28 12:03:04;;;;;;;22.43;8.77;;;;;;;;;;5031921;28;20874;-69
2022/04/28 12:05:34;;;;;;;20.20;9.17;;;;;;;;;;5031787;28;20455;-70
2022/04/28 12:08:01;;;;;;;25.47;10.03;;;;;;;;;;5032497;28;20525;-70
2022/04/28 12:16:02;;;;;;;23.07;8.93;;;;;;;;;;5032006;28;20575;-70
2022/04/28 12:21:17;;;;;;;18.93;8.77;;;;;;;;;;5031739;28;20428;-70
2022/04/28 12:23:50;;;;;;;20.90;9.40;;;;;;;;;;5031617;28;20484;-69
2022/04/28 12:26:19;;;;;;;37.23;15.97;;;;;;;;;;5031735;28;20449;-70
2022/04/28 12:28:50;;;;;;;19.50;8.67;;;;;;;;;;5031701;28;20953;-70
2022/04/28 12:31:26;;;;;;;30.83;13.03;;;;;;;;;;5031433;28;20436;-70
2022/04/28 12:33:55;;;;;;;29.97;13.40;;;;;;;;;;5031944;28;20954;-70
2022/04/28 12:36:24;;;;;;;34.03;15.50;;;;;;;;;;5031544;28;20570;-70
2022/04/28 12:38:52;;;;;;;32.90;13.97;;;;;;;;;;5031790;28;20452;-69
2022/04/28 12:41:22;;;;;;;20.17;9.17;;;;;;;;;;5035047;28;20962;-70
2022/04/28 12:43:52;;;;;;;18.47;8.00;;;;;;;;;;5035772;28;20546;-70
2022/04/28 12:46:23;;;;;;;19.17;8.77;;;;;;;;;;5035976;28;20524;-69
2022/04/28 12:48:57;;;;;;;20.43;7.47;;;;;;;;;;5035505;28;20829;-70
2022/04/28 12:51:26;;;;;;;17.83;7.77;;;;;;;;;;5035203;28;20451;-70
2022/04/28 12:53:53;;;;;;;17.73;7.40;;;;;;;;;;5035748;28;20455;-70
2022/04/28 12:56:28;;;;;;;18.57;6.80;;;;;;;;;;5035801;28;21008;-70
2022/04/28 12:58:59;;;;;;;22.33;7.63;;;;;;;;;;5034990;28;20460;-69
2022/04/28 13:01:27;;;;;;;18.17;7.83;;;;;;;;;;5035147;28;20440;-70
2022/04/28 13:03:56;;;;;;;18.93;7.17;;;;;;;;;;5035175;28;20494;-70
2022/04/28 13:06:23;;;;;;;17.20;6.50;;;;;;;;;;5035384;28;20502;-70
2022/04/28 13:08:52;;;;;;;21.13;8.27;;;;;;;;;;5035250;28;20440;-70
2022/04/28 13:11:20;;;;;;;19.33;7.90;;;;;;;;;;5034711;28;20457;-70
2022/04/28 13:13:48;;;;;;;19.67;7.47;;;;;;;;;;5034980;28;20512;-69
2022/04/28 13:16:17;;;;;;;19.80;7.27;;;;;;;;;;5035136;28;20450;-70
2022/04/28 13:18:44;;;;;;;19.90;7.33;;;;;;;;;;5035335;28;20441;-70
2022/04/28 13:21:12;;;;;;;19.73;7.67;;;;;;;;;;5034885;28;20444;-71
2022/04/28 13:23:41;;;;;;;22.50;7.60;;;;;;;;;;5034772;28;20576;-70
2022/04/28 13:26:09;;;;;;;20.60;6.40;;;;;;;;;;5034971;28;20432;-70
2022/04/28 13:28:36;;;;;;;18.50;7.20;;;;;;;;;;5034717;28;20457;-70
2022/04/28 13:31:04;;;;;;;19.57;6.93;;;;;;;;;;5034630;28;20832;-70
2022/04/28 13:33:33;;;;;;;19.87;7.67;;;;;;;;;;5034474;28;20445;-70
2022/04/28 13:36:01;;;;;;;19.37;7.10;;;;;;;;;;5034433;28;20476;-70
2022/04/28 13:38:29;;;;;;;23.47;6.80;;;;;;;;;;5034946;28;20468;-70
2022/04/28 13:40:56;;;;;;;21.20;6.83;;;;;;;;;;5034685;28;20535;-70
2022/04/28 13:43:24;;;;;;;17.77;6.67;;;;;;;;;;5034085;28;20487;-70
2022/04/28 13:45:51;;;;;;;17.00;6.90;;;;;;;;;;5034414;28;20499;-70
2022/04/28 13:48:19;;;;;;;16.87;6.17;;;;;;;;;;5034373;28;20927;-70
2022/04/28 13:50:49;;;;;;;18.07;7.57;;;;;;;;;;5033689;28;20433;-70
2022/04/28 13:53:17;;;;;;;17.17;7.00;;;;;;;;;;5033903;28;20464;-70
2022/04/28 13:55:48;;;;;;;19.53;6.80;;;;;;;;;;5033966;28;20445;-70
2022/04/28 13:58:15;;;;;;;19.43;7.57;;;;;;;;;;5033789;28;20518;-70
2022/04/28 14:00:49;;;;;;;19.83;7.63;;;;;;;;;;5034416;28;20448;-70
2022/04/28 14:03:16;;;;;;;21.47;7.27;;;;;;;;;;5034158;28;20480;-70
2022/04/28 14:05:44;;;;;;;20.50;7.40;;;;;;;;;;5034144;28;20448;-69
2022/04/28 14:08:13;;;;;;;18.30;7.23;;;;;;;;;;5034115;28;20451;-70
2022/04/28 14:10:41;;;;;;;19.93;6.80;;;;;;;;;;5033804;28;20448;-70
2022/04/28 14:13:08;;;;;;;20.40;8.03;;;;;;;;;;5033898;28;20448;-70
2022/04/28 14:15:35;;;;;;;21.03;7.37;;;;;;;;;;5033805;28;20984;-70
2022/04/28 14:18:03;;;;;;;18.47;7.23;;;;;;;;;;5033914;28;20540;-70
2022/04/28 14:20:31;;;;;;;17.57;7.03;;;;;;;;;;5033760;28;20452;-70
2022/04/28 14:22:59;;;;;;;24.57;8.00;;;;;;;;;;5033618;28;20860;-70
2022/04/28 14:25:28;;;;;;;19.97;7.40;;;;;;;;;;5033665;28;20825;-69
2022/04/28 14:27:56;;;;;;;20.70;7.03;;;;;;;;;;5034401;28;20467;-71
2022/04/28 14:30:24;;;;;;;20.73;7.30;;;;;;;;;;5034123;28;20452;-70
2022/04/28 14:32:51;;;;;;;21.00;7.27;;;;;;;;;;5034263;28;20529;-70
2022/04/28 14:35:19;;;;;;;22.43;7.93;;;;;;;;;;5033022;28;20443;-70
2022/04/28 14:37:46;;;;;;;20.87;7.80;;;;;;;;;;5033654;28;20445;-70
2022/04/28 14:40:16;;;;;;;22.57;7.67;;;;;;;;;;5033455;28;20441;-70
2022/04/28 14:42:46;;;;;;;18.40;7.10;;;;;;;;;;5033512;28;20484;-70
2022/04/28 14:45:14;;;;;;;26.30;8.40;;;;;;;;;;5033185;28;20437;-70
2022/04/28 14:47:42;;;;;;;21.70;7.30;;;;;;;;;;5033388;28;20536;-70
2022/04/28 14:52:55;;;;;;;21.20;7.80;;;;;;;;;;5033245;28;20808;-70
2022/04/28 14:55:23;;;;;;;20.17;7.80;;;;;;;;;;5033059;28;20532;-70
2022/04/28 14:57:53;;;;;;;19.60;7.00;;;;;;;;;;5032633;28;21064;-70
2022/04/28 15:00:22;;;;;;;20.60;7.70;;;;;;;;;;5033037;28;20498;-71
2022/04/28 15:02:50;;;;;;;20.63;8.00;;;;;;;;;;5032420;28;20487;-70
2022/04/28 15:05:17;;;;;;;20.77;7.00;;;;;;;;;;5033059;28;21041;-70
2022/04/28 15:07:45;;;;;;;20.33;7.10;;;;;;;;;;5033130;28;20433;-70
2022/04/28 15:10:13;;;;;;;18.30;8.20;;;;;;;;;;5032947;28;20445;-70
2022/04/28 15:12:41;;;;;;;19.57;8.10;;;;;;;;;;5032730;28;20443;-70
2022/04/28 15:15:14;;;;;;;22.93;7.90;;;;;;;;;;5032761;28;21006;-70
2022/04/28 15:17:44;;;;;;;23.37;8.43;;;;;;;;;;5033230;28;20472;-70
2022/04/28 15:20:12;;;;;;;28.20;8.07;;;;;;;;;;5032904;28;20502;-70
2022/04/28 15:22:40;;;;;;;21.97;8.33;;;;;;;;;;5032710;28;20491;-70
2022/04/28 15:25:09;;;;;;;38.10;20.17;;;;;;;;;;5032919;28;20471;-70
2022/04/28 15:27:36;;;;;;;31.70;14.57;;;;;;;;;;5032631;28;20970;-70